Smithville, Vermont
Current Conditions -  °F | °C
As of 3:54 PM on Thursday 18 Dec 2014 (Local Time) from KVSF Reporting Station
Overcast Overcast  
Wind Chill: 29°   Ceiling: 2800
Heat Index: 35°   Visibility: 10mi
Dew Point: 25°   Wind: 7mph
Humidity: 67%   Direction: NA
Pressure: 29.83"   Gusts: NA
Location:  43.3729°N, 72.7116°W
Report Text: KVSF 182054Z AUTO VRB06KT 10SM OVC028 02/M04 A2983 RMK AO2 SLP106 T00171039 53012 TSNO
Loading
Personal Weather Stations






























Interactive Weather Map New forecast layout! Learn more

10-Day Weather Forecast

Advertisements
Track Severe Weather on mobile